createdAt,value
2017-12-21T00:02:03.219Z,8.10
2017-12-21T00:04:31.813Z,8.20
2017-12-21T00:07:00.065Z,8.20
2017-12-21T00:09:28.844Z,8.20
2017-12-21T00:11:57.120Z,8.20
2017-12-21T00:14:25.402Z,8.10
2017-12-21T00:16:53.645Z,8.20
2017-12-21T00:19:21.933Z,8.10
2017-12-21T00:21:50.181Z,8.20
2017-12-21T00:24:18.422Z,8.20
2017-12-21T00:26:46.699Z,8.30
2017-12-21T00:29:14.946Z,8.30
2017-12-21T00:31:43.240Z,8.20
2017-12-21T00:34:11.489Z,8.20
2017-12-21T00:36:39.729Z,8.30
2017-12-21T00:39:08.002Z,8.20
2017-12-21T00:41:36.261Z,8.30
2017-12-21T00:44:04.546Z,8.20
2017-12-21T00:46:32.794Z,8.20
2017-12-21T00:49:02.274Z,8.20
2017-12-21T00:51:30.574Z,8.10
2017-12-21T00:53:58.822Z,8.10
2017-12-21T00:56:27.101Z,8.20
2017-12-21T00:58:55.353Z,8.10
2017-12-21T01:01:23.631Z,8.20
2017-12-21T01:03:51.906Z,8.20
2017-12-21T01:06:20.184Z,8.20
2017-12-21T01:08:48.424Z,8.10
2017-12-21T01:11:16.717Z,8.10
2017-12-21T01:13:44.957Z,8.20
2017-12-21T01:16:13.206Z,8.10
2017-12-21T01:18:41.489Z,8.10
2017-12-21T01:21:09.735Z,8.10
2017-12-21T01:23:38.015Z,8.10
2017-12-21T01:26:06.258Z,8.10
2017-12-21T01:28:34.534Z,8.20
2017-12-21T01:31:06.129Z,8.20
2017-12-21T01:33:34.394Z,8.20
2017-12-21T01:36:02.642Z,8.20
2017-12-21T01:38:32.250Z,8.10
2017-12-21T01:41:00.523Z,8.10
2017-12-21T01:43:28.772Z,8.10
2017-12-21T01:45:57.041Z,8.00
2017-12-21T01:48:25.319Z,8.00
2017-12-21T01:50:53.565Z,8.00
2017-12-21T01:53:21.836Z,8.00
2017-12-21T01:55:50.094Z,8.00
2017-12-21T01:58:18.376Z,8.00
2017-12-21T02:00:46.652Z,8.00
2017-12-21T02:03:14.898Z,8.20
2017-12-21T02:05:43.187Z,8.10
2017-12-21T02:08:11.442Z,8.10
2017-12-21T02:10:39.734Z,8.10
2017-12-21T02:13:07.982Z,8.00
2017-12-21T02:15:35.501Z,8.00
2017-12-21T02:18:03.750Z,8.10
2017-12-21T02:20:33.402Z,8.00
2017-12-21T02:23:02.965Z,8.00
2017-12-21T02:25:31.216Z,8.00
2017-12-21T02:27:59.467Z,8.00
2017-12-21T02:30:27.749Z,7.90
2017-12-21T02:32:55.993Z,8.00
2017-12-21T02:35:24.266Z,7.90
2017-12-21T02:37:52.546Z,7.90
2017-12-21T02:40:20.838Z,7.90
2017-12-21T02:42:49.083Z,7.90
2017-12-21T02:45:17.343Z,7.90
2017-12-21T02:47:45.622Z,7.90
2017-12-21T02:50:14.779Z,7.90
2017-12-21T02:52:43.063Z,8.00
2017-12-21T02:55:11.302Z,8.00
2017-12-21T02:57:39.590Z,7.90
2017-12-21T03:00:07.834Z,8.00
2017-12-21T03:02:36.078Z,8.00
2017-12-21T03:05:04.353Z,7.90
2017-12-21T03:07:32.621Z,8.00
2017-12-21T03:10:03.929Z,8.00
2017-12-21T03:12:32.922Z,8.10
2017-12-21T03:15:00.809Z,8.10
2017-12-21T03:17:29.079Z,8.00
2017-12-21T03:20:02.470Z,8.00
2017-12-21T03:22:31.769Z,8.00
2017-12-21T03:25:00.030Z,8.00
2017-12-21T03:27:29.314Z,8.00
2017-12-21T03:29:58.458Z,8.00
2017-12-21T03:32:26.733Z,7.90
2017-12-21T03:34:54.981Z,8.00
2017-12-21T03:37:23.233Z,8.00
2017-12-21T03:39:51.510Z,8.00
2017-12-21T03:42:19.757Z,7.90
2017-12-21T03:44:48.033Z,8.00
2017-12-21T03:47:16.310Z,8.00
2017-12-21T03:49:44.571Z,7.90
2017-12-21T03:52:12.838Z,8.00
2017-12-21T03:54:41.132Z,8.00
2017-12-21T03:57:09.386Z,8.00
2017-12-21T03:59:37.629Z,8.00
2017-12-21T04:02:05.909Z,8.00
2017-12-21T04:04:34.178Z,8.00
2017-12-21T04:07:02.431Z,7.90
2017-12-21T04:09:31.806Z,8.00
2017-12-21T04:12:00.049Z,8.00
2017-12-21T04:14:28.335Z,8.00
2017-12-21T04:16:56.578Z,7.90
2017-12-21T04:19:24.821Z,7.90
2017-12-21T04:21:53.098Z,7.90
2017-12-21T04:24:21.382Z,7.90
2017-12-21T04:26:49.621Z,7.90
2017-12-21T04:29:17.873Z,7.90
2017-12-21T04:31:46.151Z,7.80
2017-12-21T04:34:14.390Z,7.90
2017-12-21T04:36:42.665Z,7.90
2017-12-21T04:39:10.910Z,7.90
2017-12-21T04:41:39.286Z,7.90
2017-12-21T04:44:07.526Z,7.90
2017-12-21T04:46:35.774Z,7.90
2017-12-21T04:49:04.045Z,8.00
2017-12-21T04:51:32.993Z,8.00
2017-12-21T04:54:02.234Z,8.00
2017-12-21T04:56:30.482Z,7.90
2017-12-21T04:58:58.733Z,8.00
2017-12-21T05:01:27.010Z,7.90
2017-12-21T05:03:55.252Z,8.00
2017-12-21T05:06:23.523Z,8.00
2017-12-21T05:08:51.769Z,8.00
2017-12-21T05:11:20.045Z,8.00
2017-12-21T05:13:48.306Z,8.00
2017-12-21T05:16:16.553Z,8.00
2017-12-21T05:18:44.821Z,8.00
2017-12-21T05:21:13.077Z,8.00
2017-12-21T05:23:41.345Z,8.00
2017-12-21T05:26:09.593Z,8.00
2017-12-21T05:28:37.866Z,8.00
2017-12-21T05:31:06.119Z,8.00
2017-12-21T05:33:34.410Z,8.00
2017-12-21T05:36:02.645Z,8.00
2017-12-21T05:38:32.248Z,8.00
2017-12-21T05:41:00.493Z,8.00
2017-12-21T05:43:28.773Z,8.00
2017-12-21T05:45:57.024Z,8.00
2017-12-21T05:48:25.270Z,8.00
2017-12-21T05:50:53.546Z,8.00
2017-12-21T05:53:21.795Z,8.10
2017-12-21T05:55:50.076Z,8.10
2017-12-21T05:58:18.330Z,8.00
2017-12-21T06:00:49.110Z,8.00
2017-12-21T06:03:17.353Z,8.00
2017-12-21T06:05:45.601Z,8.00
2017-12-21T06:08:13.878Z,8.00
2017-12-21T06:10:42.134Z,8.00
2017-12-21T06:13:10.406Z,8.00
2017-12-21T06:15:38.659Z,8.00
2017-12-21T06:18:06.939Z,8.00
2017-12-21T06:20:35.185Z,8.00
2017-12-21T06:23:03.478Z,8.00
2017-12-21T06:25:32.905Z,8.10
2017-12-21T06:28:02.132Z,8.00
2017-12-21T06:30:30.378Z,8.10
2017-12-21T06:32:58.633Z,8.10
2017-12-21T06:35:26.921Z,8.00
2017-12-21T06:37:55.165Z,8.10
2017-12-21T06:40:23.409Z,8.10
2017-12-21T06:42:51.689Z,8.00
2017-12-21T06:45:19.933Z,8.00
2017-12-21T06:47:48.180Z,8.00
2017-12-21T06:50:16.478Z,8.10
2017-12-21T06:52:44.733Z,8.10
2017-12-21T06:55:13.013Z,8.00
2017-12-21T06:57:41.254Z,8.10
2017-12-21T07:00:09.504Z,8.10
2017-12-21T07:02:37.795Z,8.00
2017-12-21T07:05:06.034Z,8.00
2017-12-21T07:07:34.277Z,8.10
2017-12-21T07:10:02.554Z,8.10
2017-12-21T07:12:31.174Z,8.10
2017-12-21T07:14:59.450Z,8.10
2017-12-21T07:17:27.702Z,8.10
2017-12-21T07:19:55.990Z,8.10
2017-12-21T07:22:24.248Z,8.20
2017-12-21T07:24:52.490Z,8.20
2017-12-21T07:27:20.770Z,8.10
2017-12-21T07:29:49.021Z,8.20
2017-12-21T07:32:17.293Z,8.10
2017-12-21T07:34:45.544Z,8.10
2017-12-21T07:37:13.818Z,8.20
2017-12-21T07:39:41.309Z,8.20
2017-12-21T07:42:09.597Z,8.10
2017-12-21T07:44:37.841Z,8.20
2017-12-21T07:47:06.090Z,8.10
2017-12-21T07:49:34.370Z,8.10
2017-12-21T07:52:02.621Z,8.20
2017-12-21T07:54:31.653Z,8.10
2017-12-21T07:56:59.893Z,8.10
2017-12-21T07:59:28.142Z,8.10
2017-12-21T08:01:56.425Z,8.10
2017-12-21T08:04:24.665Z,8.20
2017-12-21T08:06:52.951Z,8.10
2017-12-21T08:09:27.217Z,8.20
2017-12-21T08:11:55.503Z,8.10
2017-12-21T08:14:24.697Z,8.10
2017-12-21T08:16:52.973Z,8.20
2017-12-21T08:19:29.470Z,8.30
2017-12-21T08:21:57.747Z,8.30
2017-12-21T08:24:26.963Z,8.20
2017-12-21T08:26:55.214Z,8.20
2017-12-21T08:29:23.458Z,8.20
2017-12-21T08:31:51.733Z,8.20
2017-12-21T08:34:26.131Z,8.20
2017-12-21T08:36:54.410Z,8.20
2017-12-21T08:39:23.622Z,8.20
2017-12-21T08:41:51.877Z,8.20
2017-12-21T08:44:23.940Z,8.20
2017-12-21T08:46:52.193Z,8.20
2017-12-21T08:49:20.461Z,8.20
2017-12-21T08:51:49.621Z,8.20
2017-12-21T08:54:17.895Z,8.20
2017-12-21T08:56:46.154Z,8.20
2017-12-21T08:59:14.442Z,8.30
2017-12-21T09:01:42.693Z,8.20
2017-12-21T09:04:11.006Z,8.30
2017-12-21T09:06:39.316Z,8.30
2017-12-21T09:09:07.539Z,8.30
2017-12-21T09:11:46.203Z,8.30
2017-12-21T09:14:14.453Z,8.30
2017-12-21T09:16:43.654Z,8.40
2017-12-21T09:19:11.913Z,8.40
2017-12-21T09:21:40.154Z,8.40
2017-12-21T09:24:08.433Z,8.40
2017-12-21T09:26:36.683Z,8.30
2017-12-21T09:29:04.969Z,8.40
2017-12-21T09:31:33.218Z,8.40
2017-12-21T09:34:01.461Z,8.50
2017-12-21T09:36:29.753Z,8.40
2017-12-21T09:38:58.003Z,8.40
2017-12-21T09:41:26.275Z,8.40
2017-12-21T09:43:54.524Z,8.50
2017-12-21T09:46:23.834Z,8.50
2017-12-21T09:48:52.082Z,8.40
2017-12-21T09:51:20.362Z,8.40
2017-12-21T09:53:48.626Z,8.50
2017-12-21T09:56:16.911Z,8.40
2017-12-21T09:58:45.203Z,8.50
2017-12-21T10:01:13.458Z,8.40
2017-12-21T10:03:41.710Z,8.40
2017-12-21T10:06:09.994Z,8.40
2017-12-21T10:08:38.242Z,8.50
2017-12-21T10:11:06.539Z,8.50
2017-12-21T10:13:34.782Z,8.60
2017-12-21T10:16:03.026Z,8.60
2017-12-21T10:18:32.305Z,8.60
2017-12-21T10:21:00.574Z,8.60
2017-12-21T10:23:28.821Z,8.60
2017-12-21T10:25:57.102Z,8.60
2017-12-21T10:28:25.345Z,8.60
2017-12-21T10:30:53.613Z,8.60
2017-12-21T10:33:21.098Z,8.60
2017-12-21T10:35:49.381Z,8.70
2017-12-21T10:38:17.622Z,8.80
2017-12-21T10:40:45.885Z,8.70
2017-12-21T10:43:14.162Z,8.80
2017-12-21T10:45:42.421Z,8.80
2017-12-21T10:48:10.685Z,8.80
2017-12-21T10:50:38.925Z,8.90
2017-12-21T10:53:07.202Z,8.90
2017-12-21T10:55:35.451Z,8.90
2017-12-21T10:58:03.705Z,8.90
2017-12-21T11:00:33.085Z,8.90
2017-12-21T11:03:01.330Z,9.00
2017-12-21T11:05:29.605Z,9.00
2017-12-21T11:07:57.859Z,8.90
2017-12-21T11:10:26.133Z,8.90
2017-12-21T11:12:55.358Z,8.90
2017-12-21T11:15:23.634Z,8.90
2017-12-21T11:17:51.897Z,8.90
2017-12-21T11:20:20.146Z,8.90
2017-12-21T11:22:48.434Z,8.80
2017-12-21T11:25:20.152Z,8.90
2017-12-21T11:27:48.425Z,8.90
2017-12-21T11:30:23.939Z,9.00
2017-12-21T11:32:52.181Z,9.00
2017-12-21T11:35:20.455Z,9.00
2017-12-21T11:37:48.729Z,9.00
2017-12-21T11:40:16.974Z,9.00
2017-12-21T11:42:45.254Z,9.00
2017-12-21T11:45:13.501Z,9.00
2017-12-21T11:47:41.754Z,9.00
2017-12-21T11:50:10.016Z,9.00
2017-12-21T11:52:38.262Z,9.10
2017-12-21T11:55:06.542Z,9.20
2017-12-21T11:57:34.788Z,9.20
2017-12-21T12:00:03.062Z,9.20
2017-12-21T12:02:31.306Z,9.20
2017-12-21T12:04:58.785Z,9.20
2017-12-21T12:07:27.058Z,9.20
2017-12-21T12:09:55.345Z,9.20
2017-12-21T12:12:23.621Z,9.30
2017-12-21T12:14:51.862Z,9.30
2017-12-21T12:17:20.101Z,9.20
2017-12-21T12:19:48.386Z,9.40
2017-12-21T12:22:16.625Z,9.30
2017-12-21T12:24:44.906Z,9.40
2017-12-21T12:27:13.155Z,9.40
2017-12-21T12:29:41.426Z,9.30
2017-12-21T12:32:09.711Z,9.30
2017-12-21T12:34:37.186Z,9.30
2017-12-21T12:37:04.698Z,9.30
2017-12-21T12:39:32.978Z,9.40
2017-12-21T12:42:02.123Z,9.30
2017-12-21T12:44:30.423Z,9.30
2017-12-21T12:46:58.661Z,9.30
2017-12-21T12:49:26.933Z,9.40
2017-12-21T12:51:55.214Z,9.30
2017-12-21T12:54:23.459Z,9.30
2017-12-21T12:56:51.738Z,9.30
2017-12-21T12:59:19.982Z,9.40
2017-12-21T13:01:48.225Z,9.40
2017-12-21T13:04:16.502Z,9.30
2017-12-21T13:06:44.794Z,9.30
2017-12-21T13:09:13.045Z,9.40
2017-12-21T13:11:41.294Z,9.30
2017-12-21T13:14:09.579Z,9.30
2017-12-21T13:16:37.823Z,9.40
2017-12-21T13:19:06.102Z,9.30
2017-12-21T13:21:34.373Z,9.40
2017-12-21T13:24:02.666Z,9.40
2017-12-21T13:26:32.545Z,9.50
2017-12-21T13:29:01.974Z,9.50
2017-12-21T13:31:32.198Z,9.50
2017-12-21T13:34:01.625Z,9.60
2017-12-21T13:36:29.875Z,9.60
2017-12-21T13:38:58.113Z,9.50
2017-12-21T13:41:26.391Z,9.50
2017-12-21T13:43:54.635Z,9.50
2017-12-21T13:46:22.912Z,9.50
2017-12-21T13:48:51.190Z,9.50
2017-12-21T13:51:19.436Z,9.40
2017-12-21T13:53:47.711Z,9.40
2017-12-21T13:56:15.981Z,9.50
2017-12-21T13:58:43.485Z,9.50
2017-12-21T14:01:11.730Z,9.50
2017-12-21T14:03:40.005Z,9.50
2017-12-21T14:06:08.261Z,9.50
2017-12-21T14:08:36.510Z,9.50
2017-12-21T14:11:04.783Z,9.50
2017-12-21T14:13:33.026Z,9.50
2017-12-21T14:16:02.338Z,9.50
2017-12-21T14:18:31.638Z,9.60
2017-12-21T14:20:59.921Z,9.60
2017-12-21T14:23:28.167Z,9.60
2017-12-21T14:25:56.415Z,9.60
2017-12-21T14:28:24.686Z,9.90
2017-12-21T14:30:52.954Z,9.80
2017-12-21T14:33:21.198Z,9.60
2017-12-21T14:35:48.702Z,9.60
2017-12-21T14:38:16.937Z,9.70
2017-12-21T14:40:45.209Z,9.70
2017-12-21T14:43:13.482Z,9.60
2017-12-21T14:45:41.758Z,9.70
2017-12-21T14:48:10.021Z,9.70
2017-12-21T14:50:38.266Z,9.70
2017-12-21T14:53:06.546Z,9.80
2017-12-21T14:55:34.792Z,9.80
2017-12-21T14:58:03.033Z,9.70
2017-12-21T15:00:31.306Z,9.70
2017-12-21T15:02:59.550Z,9.60
2017-12-21T15:05:27.837Z,9.60
2017-12-21T15:07:56.087Z,9.60
2017-12-21T15:10:24.325Z,9.70
2017-12-21T15:12:52.597Z,9.70
2017-12-21T15:15:20.839Z,9.70
2017-12-21T15:17:49.109Z,9.80
2017-12-21T15:20:17.354Z,9.70
2017-12-21T15:22:45.625Z,9.70
2017-12-21T15:25:13.873Z,9.70
2017-12-21T15:27:42.133Z,9.60
2017-12-21T15:30:10.378Z,9.80
2017-12-21T15:32:38.642Z,9.70
2017-12-21T15:35:06.909Z,9.70
2017-12-21T15:37:35.155Z,9.70
2017-12-21T15:40:02.662Z,9.70
2017-12-21T15:42:32.146Z,9.60
2017-12-21T15:44:59.654Z,9.60
2017-12-21T15:47:27.940Z,9.70
2017-12-21T15:49:56.179Z,9.60
2017-12-21T15:52:24.459Z,9.60
2017-12-21T15:54:52.698Z,9.60
2017-12-21T15:57:20.970Z,9.60
2017-12-21T15:59:49.206Z,9.50
2017-12-21T16:02:17.492Z,9.50
2017-12-21T16:04:45.733Z,9.50
2017-12-21T16:07:13.216Z,9.50
2017-12-21T16:09:41.501Z,9.50
2017-12-21T16:12:09.770Z,9.50
2017-12-21T16:14:38.011Z,9.50
2017-12-21T16:17:06.285Z,9.50
2017-12-21T16:19:34.538Z,9.40
2017-12-21T16:22:02.809Z,9.40
2017-12-21T16:24:32.049Z,9.40
2017-12-21T16:27:01.144Z,9.40
2017-12-21T16:29:29.402Z,9.40
2017-12-21T16:31:57.647Z,9.40
2017-12-21T16:34:25.923Z,9.40
2017-12-21T16:36:54.170Z,9.50
2017-12-21T16:39:22.446Z,9.50
2017-12-21T16:41:50.695Z,9.40
2017-12-21T16:44:18.977Z,9.40
2017-12-21T16:46:47.222Z,9.40
2017-12-21T16:49:15.467Z,9.40
2017-12-21T16:51:43.739Z,9.40
2017-12-21T16:54:11.991Z,9.40
2017-12-21T16:56:40.266Z,9.40
2017-12-21T16:59:08.516Z,9.40
2017-12-21T17:01:36.785Z,9.40
2017-12-21T17:04:05.034Z,9.40
2017-12-21T17:06:32.537Z,9.40
2017-12-21T17:09:01.838Z,9.50
2017-12-21T17:11:30.078Z,9.50
2017-12-21T17:13:58.341Z,9.40
2017-12-21T17:16:26.619Z,9.40
2017-12-21T17:18:54.869Z,9.40
2017-12-21T17:21:23.137Z,9.50
2017-12-21T17:23:51.389Z,9.50
2017-12-21T17:26:19.712Z,9.50
2017-12-21T17:28:47.953Z,9.50
2017-12-21T17:31:16.242Z,9.40
2017-12-21T17:33:44.481Z,9.40
2017-12-21T17:36:12.735Z,9.40
2017-12-21T17:38:41.018Z,9.40
2017-12-21T17:41:09.271Z,9.40
2017-12-21T17:43:37.532Z,9.40
2017-12-21T17:46:05.817Z,9.40
2017-12-21T17:48:34.067Z,9.40
2017-12-21T17:51:08.042Z,9.40
2017-12-21T17:53:36.407Z,9.40
2017-12-21T17:56:04.653Z,9.40
2017-12-21T17:58:32.985Z,9.40
2017-12-21T18:01:02.175Z,9.50
2017-12-21T18:03:30.972Z,9.50
2017-12-21T18:05:59.238Z,9.60
2017-12-21T18:08:27.530Z,9.50
2017-12-21T18:10:55.818Z,9.50
2017-12-21T18:13:24.066Z,9.50
2017-12-21T18:15:52.357Z,9.50
2017-12-21T18:18:20.630Z,9.50
2017-12-21T18:20:48.871Z,9.50
2017-12-21T18:23:17.149Z,9.50
2017-12-21T18:25:45.468Z,9.50
2017-12-21T18:28:13.757Z,9.50
2017-12-21T18:30:42.037Z,9.50
2017-12-21T18:33:10.342Z,9.50
2017-12-21T18:35:38.586Z,9.40
2017-12-21T18:38:06.918Z,9.40
2017-12-21T18:40:35.208Z,9.50
2017-12-21T18:43:03.533Z,9.40
2017-12-21T18:45:32.401Z,9.40
2017-12-21T18:48:01.889Z,9.40
2017-12-21T18:50:30.934Z,9.50
2017-12-21T18:52:59.213Z,9.40
2017-12-21T18:55:27.465Z,9.40
2017-12-21T18:57:55.765Z,9.40
2017-12-21T19:00:24.098Z,9.40
2017-12-21T19:02:52.354Z,9.40
2017-12-21T19:05:20.680Z,9.40
2017-12-21T19:07:48.921Z,9.40
2017-12-21T19:10:17.343Z,9.40
2017-12-21T19:12:45.637Z,9.40
2017-12-21T19:15:13.952Z,9.40
2017-12-21T19:17:42.229Z,9.40
2017-12-21T19:20:10.539Z,9.40
2017-12-21T19:22:38.873Z,9.40
2017-12-21T19:25:07.165Z,9.40
2017-12-21T19:27:35.497Z,9.40
2017-12-21T19:30:03.825Z,9.40
2017-12-21T19:32:32.961Z,9.40
2017-12-21T19:35:01.838Z,9.40
2017-12-21T19:37:31.406Z,9.30
2017-12-21T19:39:59.702Z,9.30
2017-12-21T19:42:28.027Z,9.30
2017-12-21T19:44:56.358Z,9.30
2017-12-21T19:47:24.664Z,9.20
2017-12-21T19:49:53.005Z,9.20
2017-12-21T19:52:21.304Z,9.20
2017-12-21T19:54:49.609Z,9.20
2017-12-21T19:57:17.166Z,9.10
2017-12-21T19:59:45.460Z,9.10
2017-12-21T20:02:13.825Z,9.10
2017-12-21T20:04:42.141Z,9.10
2017-12-21T20:07:10.476Z,9.10
2017-12-21T20:09:38.768Z,9.10
2017-12-21T20:12:07.070Z,9.10
2017-12-21T20:14:35.402Z,9.10
2017-12-21T20:17:03.007Z,9.10
2017-12-21T20:19:31.860Z,9.10
2017-12-21T20:22:01.194Z,9.10
2017-12-21T20:24:29.495Z,9.10
2017-12-21T20:26:57.766Z,9.10
2017-12-21T20:29:26.022Z,9.10
2017-12-21T20:31:54.351Z,9.10
2017-12-21T20:34:22.649Z,9.10
2017-12-21T20:36:50.906Z,9.10
2017-12-21T20:39:19.228Z,9.10
2017-12-21T20:41:47.519Z,9.00
2017-12-21T20:44:15.849Z,9.00
2017-12-21T20:46:44.145Z,9.00
2017-12-21T20:49:12.441Z,9.00
2017-12-21T20:51:40.772Z,9.00
2017-12-21T20:54:09.055Z,9.00
2017-12-21T20:56:37.367Z,9.00
2017-12-21T20:59:05.674Z,9.00
2017-12-21T21:01:33.997Z,8.90
2017-12-21T21:04:05.645Z,8.90
2017-12-21T21:06:33.968Z,8.90
2017-12-21T21:09:08.109Z,8.90
2017-12-21T21:11:36.436Z,9.00
2017-12-21T21:14:04.796Z,8.90
2017-12-21T21:16:33.081Z,9.00
2017-12-21T21:19:01.392Z,9.10
2017-12-21T21:21:29.730Z,9.00
2017-12-21T21:23:58.033Z,9.00
2017-12-21T21:26:26.324Z,9.00
2017-12-21T21:28:54.644Z,9.00
2017-12-21T21:31:22.936Z,9.00
2017-12-21T21:33:51.257Z,9.00
2017-12-21T21:36:19.582Z,9.00
2017-12-21T21:38:47.885Z,9.00
2017-12-21T21:41:16.214Z,9.00
2017-12-21T21:43:44.514Z,9.00
2017-12-21T21:46:12.824Z,9.00
2017-12-21T21:48:41.144Z,9.00
2017-12-21T21:51:09.465Z,9.00
2017-12-21T21:53:37.793Z,9.00
2017-12-21T21:56:06.073Z,9.00
2017-12-21T21:58:34.364Z,9.00
2017-12-21T22:01:02.873Z,9.00
2017-12-21T22:03:32.120Z,9.00
2017-12-21T22:06:00.469Z,9.00
2017-12-21T22:08:28.760Z,9.00
2017-12-21T22:10:57.052Z,9.10
2017-12-21T22:13:25.373Z,9.10
2017-12-21T22:15:53.669Z,9.10
2017-12-21T22:18:22.004Z,9.10
2017-12-21T22:20:50.313Z,9.10
2017-12-21T22:23:18.600Z,9.10
2017-12-21T22:25:46.914Z,9.10
2017-12-21T22:28:15.218Z,9.10
2017-12-21T22:30:43.535Z,9.10
2017-12-21T22:33:11.822Z,9.00
2017-12-21T22:35:40.094Z,9.10
2017-12-21T22:38:08.388Z,9.10
2017-12-21T22:40:36.709Z,9.10
2017-12-21T22:43:05.020Z,9.10
2017-12-21T22:45:33.321Z,9.10
2017-12-21T22:48:02.579Z,9.10
2017-12-21T22:50:32.260Z,9.10
2017-12-21T22:53:01.682Z,9.10
2017-12-21T22:55:29.984Z,9.10
2017-12-21T22:57:58.326Z,9.10
2017-12-21T23:00:26.618Z,9.10
2017-12-21T23:02:54.899Z,9.20
2017-12-21T23:05:23.217Z,9.10
2017-12-21T23:07:51.547Z,9.20
2017-12-21T23:10:19.845Z,9.20
2017-12-21T23:12:48.111Z,9.10
2017-12-21T23:15:16.414Z,9.20
2017-12-21T23:17:44.748Z,9.10
2017-12-21T23:20:12.991Z,9.20
2017-12-21T23:22:41.321Z,9.20
2017-12-21T23:25:09.648Z,9.30
2017-12-21T23:27:37.905Z,9.20
2017-12-21T23:30:06.194Z,9.20
2017-12-21T23:32:34.511Z,9.20
2017-12-21T23:35:02.762Z,9.20
2017-12-21T23:37:32.087Z,9.20
2017-12-21T23:40:00.382Z,9.20
2017-12-21T23:42:28.628Z,9.30
2017-12-21T23:44:56.878Z,9.30
2017-12-21T23:47:25.161Z,9.30
2017-12-21T23:49:53.448Z,9.20
2017-12-21T23:52:21.690Z,9.20
2017-12-21T23:54:49.958Z,9.20
2017-12-21T23:57:18.206Z,9.30
2017-12-21T23:59:46.498Z,9.30
